createdAt,value
2022-10-21T00:00:18.563Z,100831.75
2022-10-21T00:02:46.415Z,100835.56
2022-10-21T00:05:13.611Z,100849.78
2022-10-21T00:07:40.585Z,100842.53
2022-10-21T00:10:08.591Z,100842.63
2022-10-21T00:12:37.085Z,100833.53
2022-10-21T00:15:05.723Z,100826.97
2022-10-21T00:17:35.430Z,100843.06
2022-10-21T00:20:05.083Z,100839.25
2022-10-21T00:22:31.883Z,100838.84
2022-10-21T00:24:58.907Z,100833.66
2022-10-21T00:27:25.793Z,100834.97
2022-10-21T00:29:52.595Z,100838.97
2022-10-21T00:32:19.499Z,100832.72
2022-10-21T00:34:47.026Z,100828.81
2022-10-21T00:37:14.937Z,100819.00
2022-10-21T00:39:41.904Z,100835.88
2022-10-21T00:42:15.282Z,100831.88
2022-10-21T00:44:42.183Z,100829.19
2022-10-21T00:47:21.599Z,100812.72
2022-10-21T00:50:03.727Z,100820.56
2022-10-21T00:52:33.947Z,100806.19
2022-10-21T00:55:04.854Z,100800.50
2022-10-21T00:57:35.097Z,100795.97
2022-10-21T01:00:05.332Z,100796.28
2022-10-21T01:02:32.485Z,100798.22
2022-10-21T01:05:01.897Z,100790.34
2022-10-21T01:07:29.072Z,100787.75
2022-10-21T01:09:55.856Z,100790.38
2022-10-21T01:12:31.625Z,100791.53
2022-10-21T01:15:33.495Z,100788.19
2022-10-21T01:18:15.369Z,100782.25
2022-10-21T01:21:19.995Z,100773.28
2022-10-21T01:23:52.658Z,100774.31
2022-10-21T01:26:50.693Z,100771.25
2022-10-21T01:29:36.027Z,100766.03
2022-10-21T01:32:40.048Z,100770.88
2022-10-21T01:35:22.556Z,100767.00
2022-10-21T01:37:56.182Z,100772.25
2022-10-21T01:40:33.115Z,100762.84
2022-10-21T01:43:32.825Z,100762.63
2022-10-21T01:46:09.300Z,100753.25
2022-10-21T01:48:41.863Z,100743.00
2022-10-21T01:51:09.990Z,100743.97
2022-10-21T01:53:44.331Z,100732.34
2022-10-21T01:56:13.689Z,100738.13
2022-10-21T01:58:43.448Z,100737.69
2022-10-21T02:01:12.957Z,100730.22
2022-10-21T02:03:43.930Z,100725.88
2022-10-21T02:06:14.037Z,100721.81
2022-10-21T02:08:42.650Z,100727.03
2022-10-21T02:11:11.916Z,100724.16
2022-10-21T02:14:04.064Z,100709.03
2022-10-21T02:16:35.435Z,100704.22
2022-10-21T02:19:02.368Z,100694.06
2022-10-21T02:21:35.020Z,100701.25
2022-10-21T02:24:22.664Z,100700.09
2022-10-21T02:26:49.621Z,100707.28
2022-10-21T02:29:22.998Z,100703.38
2022-10-21T02:32:01.986Z,100695.06
2022-10-21T02:34:39.736Z,100698.81
2022-10-21T02:37:28.220Z,100702.88
2022-10-21T02:40:14.305Z,100710.00
2022-10-21T02:42:48.239Z,100709.19
2022-10-21T02:45:16.851Z,100706.38
2022-10-21T02:47:43.893Z,100709.34
2022-10-21T02:50:10.895Z,100712.19
2022-10-21T02:52:37.642Z,100714.06
2022-10-21T02:55:04.824Z,100707.97
2022-10-21T02:57:31.573Z,100722.03
2022-10-21T02:59:58.298Z,100723.59
2022-10-21T03:02:25.329Z,100715.94
2022-10-21T03:04:52.080Z,100716.38
2022-10-21T03:07:18.984Z,100726.75
2022-10-21T03:09:45.753Z,100707.31
2022-10-21T03:12:12.552Z,100714.84
2022-10-21T03:14:39.396Z,100705.91
2022-10-21T03:17:06.262Z,100704.63
2022-10-21T03:19:33.119Z,100703.66
2022-10-21T03:21:59.956Z,100710.63
2022-10-21T03:24:28.869Z,100715.50
2022-10-21T03:26:56.431Z,100698.34
2022-10-21T03:29:23.282Z,100709.16
2022-10-21T03:31:50.083Z,100724.16
2022-10-21T03:34:16.905Z,100716.56
2022-10-21T03:36:43.887Z,100716.06
2022-10-21T03:39:11.875Z,100708.31
2022-10-21T03:41:38.870Z,100710.88
2022-10-21T03:44:05.658Z,100702.56
2022-10-21T03:46:32.670Z,100684.19
2022-10-21T03:49:03.629Z,100674.38
2022-10-21T03:51:32.789Z,100671.00
2022-10-21T03:53:59.596Z,100658.25
2022-10-21T03:56:27.310Z,100650.66
2022-10-21T03:58:58.543Z,100638.13
2022-10-21T04:01:26.393Z,100622.06
2022-10-21T04:03:53.577Z,100620.69
2022-10-21T04:06:20.422Z,100618.38
2022-10-21T04:08:47.577Z,100615.69
2022-10-21T04:11:14.870Z,100613.06
2022-10-21T04:13:41.829Z,100621.03
2022-10-21T04:16:13.666Z,100622.69
2022-10-21T04:18:40.443Z,100619.97
2022-10-21T04:21:08.790Z,100617.00
2022-10-21T04:23:36.160Z,100638.16
2022-10-21T04:26:03.878Z,100644.66
2022-10-21T04:28:31.095Z,100648.81
2022-10-21T04:30:57.875Z,100659.91
2022-10-21T04:33:24.920Z,100654.41
2022-10-21T04:35:54.377Z,100645.47
2022-10-21T04:38:22.546Z,100643.03
2022-10-21T04:40:59.334Z,100636.34
2022-10-21T04:43:26.865Z,100627.56
2022-10-21T04:45:54.505Z,100636.47
2022-10-21T04:48:22.115Z,100638.28
2022-10-21T04:50:53.226Z,100630.47
2022-10-21T04:53:21.444Z,100634.06
2022-10-21T04:55:54.377Z,100631.59
2022-10-21T04:58:22.497Z,100619.59
2022-10-21T05:00:52.923Z,100610.03
2022-10-21T05:03:20.400Z,100606.69
2022-10-21T05:05:52.084Z,100603.00
2022-10-21T05:08:20.032Z,100603.84
2022-10-21T05:10:47.183Z,100598.88
2022-10-21T05:13:14.470Z,100598.03
2022-10-21T05:15:41.235Z,100599.53
2022-10-21T05:18:08.002Z,100593.44
2022-10-21T05:20:34.826Z,100597.09
2022-10-21T05:23:01.599Z,100598.88
2022-10-21T05:25:31.751Z,100593.38
2022-10-21T05:28:01.170Z,100593.44
2022-10-21T05:30:28.063Z,100597.28
2022-10-21T05:32:54.868Z,100594.31
2022-10-21T05:35:21.636Z,100597.81
2022-10-21T05:37:48.464Z,100601.97
2022-10-21T05:40:15.328Z,100599.44
2022-10-21T05:42:42.163Z,100595.84
2022-10-21T05:45:09.818Z,100594.84
2022-10-21T05:47:36.626Z,100595.06
2022-10-21T05:50:03.731Z,100591.91
2022-10-21T05:52:31.532Z,100591.13
2022-10-21T05:54:58.319Z,100602.53
2022-10-21T05:57:25.183Z,100605.00
2022-10-21T05:59:51.998Z,100603.97
2022-10-21T06:02:18.773Z,100616.19
2022-10-21T06:04:45.547Z,100621.47
2022-10-21T06:07:12.307Z,100616.78
2022-10-21T06:09:39.181Z,100616.28
2022-10-21T06:12:07.043Z,100623.13
2022-10-21T06:14:36.292Z,100621.47
2022-10-21T06:17:04.416Z,100617.94
2022-10-21T06:19:31.443Z,100613.72
2022-10-21T06:21:58.908Z,100606.63
2022-10-21T06:24:25.877Z,100606.84
2022-10-21T06:26:52.678Z,100607.53
2022-10-21T06:29:19.597Z,100604.00
2022-10-21T06:31:46.457Z,100604.16
2022-10-21T06:34:13.357Z,100609.19
2022-10-21T06:36:40.216Z,100619.50
2022-10-21T06:39:08.454Z,100629.66
2022-10-21T06:41:35.204Z,100633.31
2022-10-21T06:44:02.077Z,100635.78
2022-10-21T06:46:28.845Z,100629.69
2022-10-21T06:48:56.127Z,100637.81
2022-10-21T06:51:24.645Z,100646.00
2022-10-21T06:53:54.396Z,100646.41
2022-10-21T06:56:22.429Z,100648.16
2022-10-21T06:58:50.407Z,100647.09
2022-10-21T07:01:40.970Z,100647.34
2022-10-21T07:04:09.433Z,100651.09
2022-10-21T07:06:36.587Z,100642.16
2022-10-21T07:09:05.924Z,100647.75
2022-10-21T07:11:32.725Z,100642.63
2022-10-21T07:14:00.556Z,100638.78
2022-10-21T07:16:33.462Z,100642.09
2022-10-21T07:19:00.510Z,100631.13
2022-10-21T07:21:29.355Z,100631.56
2022-10-21T07:23:59.281Z,100636.16
2022-10-21T07:26:28.685Z,100633.44
2022-10-21T07:28:58.342Z,100635.78
2022-10-21T07:31:25.739Z,100637.75
2022-10-21T07:33:53.474Z,100643.13
2022-10-21T07:36:24.098Z,100639.50
2022-10-21T07:38:51.814Z,100642.00
2022-10-21T07:41:20.609Z,100640.25
2022-10-21T07:43:48.115Z,100640.97
2022-10-21T07:46:16.078Z,100648.97
2022-10-21T07:48:42.909Z,100654.91
2022-10-21T07:51:13.056Z,100642.53
2022-10-21T07:53:40.927Z,100644.28
2022-10-21T07:56:26.491Z,100639.31
2022-10-21T07:58:53.434Z,100649.03
2022-10-21T08:01:21.173Z,100649.72
2022-10-21T08:03:48.969Z,100653.81
2022-10-21T08:06:17.565Z,100653.00
2022-10-21T08:08:45.647Z,100643.59
2022-10-21T08:11:24.379Z,100653.09
2022-10-21T08:13:51.176Z,100651.06
2022-10-21T08:16:17.964Z,100644.84
2022-10-21T08:18:44.894Z,100652.22
2022-10-21T08:21:12.048Z,100649.72
2022-10-21T08:23:38.990Z,100653.28
2022-10-21T08:26:10.231Z,100654.06
2022-10-21T08:28:37.309Z,100652.31
2022-10-21T08:31:13.099Z,100658.22
2022-10-21T08:33:40.233Z,100648.34
2022-10-21T08:36:08.743Z,100641.69
2022-10-21T08:38:35.966Z,100648.63
2022-10-21T08:41:10.386Z,100644.44
2022-10-21T08:43:39.278Z,100636.84
2022-10-21T08:46:16.987Z,100635.78
2022-10-21T08:48:54.035Z,100636.50
2022-10-21T08:51:31.779Z,100639.38
2022-10-21T08:54:05.220Z,100642.75
2022-10-21T08:56:32.759Z,100642.34
2022-10-21T08:58:59.543Z,100638.38
2022-10-21T09:01:49.173Z,100628.50
2022-10-21T09:04:29.467Z,100620.28
2022-10-21T09:07:02.881Z,100624.19
2022-10-21T09:09:36.943Z,100624.00
2022-10-21T09:12:08.400Z,100632.31
2022-10-21T09:14:41.393Z,100628.75
2022-10-21T09:17:25.254Z,100627.25
2022-10-21T09:20:02.860Z,100637.06
2022-10-21T09:22:56.905Z,100638.09
2022-10-21T09:25:30.030Z,100638.63
2022-10-21T09:27:58.283Z,100646.13
2022-10-21T09:30:26.092Z,100633.53
2022-10-21T09:33:00.404Z,100634.31
2022-10-21T09:35:35.081Z,100634.25
2022-10-21T09:38:10.603Z,100631.00
2022-10-21T09:40:37.552Z,100633.13
2022-10-21T09:43:06.413Z,100623.16
2022-10-21T09:45:39.104Z,100632.56
2022-10-21T09:48:17.765Z,100634.84
2022-10-21T09:50:51.553Z,100634.25
2022-10-21T09:53:26.623Z,100630.81
2022-10-21T09:56:02.628Z,100631.44
2022-10-21T09:58:45.854Z,100621.81
2022-10-21T10:01:22.822Z,100629.94
2022-10-21T10:03:51.855Z,100632.84
2022-10-21T10:06:34.867Z,100631.75
2022-10-21T10:09:16.934Z,100631.47
2022-10-21T10:12:04.021Z,100628.25
2022-10-21T10:14:34.619Z,100630.50
2022-10-21T10:17:20.347Z,100630.91
2022-10-21T10:20:05.573Z,100638.75
2022-10-21T10:22:45.921Z,100635.16
2022-10-21T10:25:16.958Z,100651.69
2022-10-21T10:28:16.402Z,100650.09
2022-10-21T10:30:43.144Z,100649.69
2022-10-21T10:33:26.259Z,100644.00
2022-10-21T10:35:54.614Z,100656.47
2022-10-21T10:38:25.116Z,100653.97
2022-10-21T10:40:56.321Z,100662.13
2022-10-21T10:43:32.089Z,100652.69
2022-10-21T10:46:02.147Z,100646.53
2022-10-21T10:48:43.458Z,100642.63
2022-10-21T10:51:29.543Z,100640.88
2022-10-21T10:54:17.456Z,100641.34
2022-10-21T10:56:51.929Z,100642.09
2022-10-21T10:59:40.993Z,100640.00
2022-10-21T11:02:07.931Z,100635.88
2022-10-21T11:04:49.956Z,100644.22
2022-10-21T11:07:24.638Z,100642.06
2022-10-21T11:09:56.896Z,100642.38
2022-10-21T11:12:26.484Z,100632.41
2022-10-21T11:15:00.319Z,100627.41
2022-10-21T11:17:41.225Z,100638.88
2022-10-21T11:20:11.165Z,100649.03
2022-10-21T11:22:46.719Z,100639.28
2022-10-21T11:25:40.122Z,100638.50
2022-10-21T11:28:25.689Z,100636.81
2022-10-21T11:31:30.620Z,100634.88
2022-10-21T11:34:17.592Z,100645.97
2022-10-21T11:37:07.892Z,100636.69
2022-10-21T11:39:52.738Z,100630.97
2022-10-21T11:42:28.551Z,100633.22
2022-10-21T11:45:26.319Z,100643.22
2022-10-21T11:47:58.878Z,100635.31
2022-10-21T11:50:32.486Z,100634.00
2022-10-21T11:53:17.921Z,100637.41
2022-10-21T11:55:59.834Z,100641.41
2022-10-21T11:58:54.610Z,100636.66
2022-10-21T12:01:24.218Z,100635.94
2022-10-21T12:04:14.845Z,100620.94
2022-10-21T12:06:52.480Z,100623.06
2022-10-21T12:09:39.092Z,100612.63
2022-10-21T12:12:11.805Z,100607.16
2022-10-21T12:14:44.561Z,100611.72
2022-10-21T12:17:17.121Z,100621.22
2022-10-21T12:19:51.646Z,100614.53
2022-10-21T12:22:18.693Z,100611.97
2022-10-21T12:24:51.836Z,100606.25
2022-10-21T12:27:28.142Z,100617.94
2022-10-21T12:30:13.395Z,100613.59
2022-10-21T12:32:43.224Z,100609.06
2022-10-21T12:35:25.094Z,100617.03
2022-10-21T12:37:51.868Z,100617.72
2022-10-21T12:40:27.683Z,100616.50
2022-10-21T12:43:01.369Z,100616.50
2022-10-21T12:45:34.793Z,100621.06
2022-10-21T12:48:05.824Z,100621.25
2022-10-21T12:50:34.737Z,100616.56
2022-10-21T12:53:48.345Z,100617.03
2022-10-21T12:56:42.807Z,100617.50
2022-10-21T12:59:27.643Z,100623.72
2022-10-21T13:02:06.727Z,100616.94
2022-10-21T13:04:33.594Z,100614.56
2022-10-21T13:07:16.560Z,100607.41
2022-10-21T13:10:06.049Z,100608.09
2022-10-21T13:12:33.795Z,100609.06
2022-10-21T13:15:22.336Z,100612.75
2022-10-21T13:17:56.812Z,100611.44
2022-10-21T13:20:23.632Z,100609.53
2022-10-21T13:23:03.319Z,100613.91
2022-10-21T13:25:35.300Z,100605.97
2022-10-21T13:28:14.402Z,100601.94
2022-10-21T13:30:59.164Z,100611.34
2022-10-21T13:33:29.907Z,100611.91
2022-10-21T13:36:01.695Z,100612.38
2022-10-21T13:38:37.837Z,100616.00
2022-10-21T13:41:20.007Z,100625.97
2022-10-21T13:43:53.449Z,100630.06
2022-10-21T13:46:43.364Z,100633.03
2022-10-21T13:49:28.743Z,100632.53
2022-10-21T13:51:56.291Z,100625.31
2022-10-21T13:54:23.118Z,100626.38
2022-10-21T13:56:50.000Z,100627.25
2022-10-21T13:59:25.897Z,100630.22
2022-10-21T14:01:55.846Z,100625.31
2022-10-21T14:04:30.666Z,100623.63
2022-10-21T14:06:58.251Z,100617.16
2022-10-21T14:09:32.130Z,100612.56
2022-10-21T14:12:02.725Z,100612.91
2022-10-21T14:14:32.264Z,100608.38
2022-10-21T14:17:18.060Z,100612.34
2022-10-21T14:19:50.225Z,100614.28
2022-10-21T14:22:21.071Z,100608.78
2022-10-21T14:24:49.844Z,100612.34
2022-10-21T14:27:31.492Z,100618.28
2022-10-21T14:30:01.609Z,100617.88
2022-10-21T14:32:29.285Z,100625.53
2022-10-21T14:34:59.325Z,100611.53
2022-10-21T14:37:26.196Z,100610.69
2022-10-21T14:39:53.312Z,100615.06
2022-10-21T14:42:25.347Z,100612.19
2022-10-21T14:45:02.825Z,100606.16
2022-10-21T14:47:29.851Z,100613.19
2022-10-21T14:50:00.480Z,100607.59
2022-10-21T14:52:30.433Z,100607.78
2022-10-21T14:55:02.172Z,100619.78
2022-10-21T14:57:47.748Z,100617.97
2022-10-21T15:00:32.046Z,100617.81
2022-10-21T15:03:00.551Z,100621.13
2022-10-21T15:05:31.869Z,100631.03
2022-10-21T15:08:21.199Z,100620.31
2022-10-21T15:10:57.077Z,100621.84
2022-10-21T15:13:26.762Z,100630.38
2022-10-21T15:15:55.942Z,100633.94
2022-10-21T15:18:22.698Z,100634.66
2022-10-21T15:21:00.251Z,100637.34
2022-10-21T15:23:40.093Z,100637.78
2022-10-21T15:26:21.473Z,100627.31
2022-10-21T15:28:48.806Z,100630.13
2022-10-21T15:31:20.746Z,100633.47
2022-10-21T15:33:53.613Z,100637.38
2022-10-21T15:36:20.752Z,100644.28
2022-10-21T15:38:48.515Z,100650.13
2022-10-21T15:41:29.212Z,100647.75
2022-10-21T15:44:03.356Z,100655.44
2022-10-21T15:46:33.222Z,100646.16
2022-10-21T15:49:06.967Z,100642.88
2022-10-21T15:51:33.761Z,100651.28
2022-10-21T15:54:00.654Z,100657.34
2022-10-21T15:56:27.543Z,100650.41
2022-10-21T15:58:54.358Z,100648.72
2022-10-21T16:01:21.393Z,100648.25
2022-10-21T16:03:48.259Z,100649.06
2022-10-21T16:06:17.678Z,100658.41
2022-10-21T16:08:44.684Z,100667.50
2022-10-21T16:11:25.537Z,100662.06
2022-10-21T16:14:01.742Z,100659.72
2022-10-21T16:16:28.889Z,100657.25
2022-10-21T16:18:55.756Z,100653.78
2022-10-21T16:21:23.110Z,100657.03
2022-10-21T16:23:50.700Z,100659.97
2022-10-21T16:26:22.619Z,100657.34
2022-10-21T16:28:54.587Z,100664.47
2022-10-21T16:31:21.711Z,100662.63
2022-10-21T16:33:48.692Z,100665.59
2022-10-21T16:36:24.354Z,100671.38
2022-10-21T16:38:52.456Z,100670.88
2022-10-21T16:41:21.658Z,100667.72
2022-10-21T16:43:48.525Z,100674.47
2022-10-21T16:46:33.468Z,100667.44
2022-10-21T16:49:03.515Z,100665.50
2022-10-21T16:51:31.414Z,100669.63
2022-10-21T16:53:58.544Z,100666.88
2022-10-21T16:56:25.603Z,100662.25
2022-10-21T16:58:52.681Z,100664.94
2022-10-21T17:01:22.849Z,100664.66
2022-10-21T17:03:50.699Z,100670.41
2022-10-21T17:06:20.378Z,100665.13
2022-10-21T17:08:48.300Z,100664.88
2022-10-21T17:11:19.826Z,100669.34
2022-10-21T17:13:46.828Z,100678.22
2022-10-21T17:16:13.686Z,100675.59
2022-10-21T17:18:41.706Z,100682.69
2022-10-21T17:21:21.932Z,100675.88
2022-10-21T17:23:49.485Z,100677.19
2022-10-21T17:26:17.522Z,100669.19
2022-10-21T17:28:44.609Z,100670.50
2022-10-21T17:31:19.212Z,100673.94
2022-10-21T17:33:47.242Z,100677.03
2022-10-21T17:36:15.780Z,100682.53
2022-10-21T17:38:43.147Z,100686.59
2022-10-21T17:41:11.248Z,100695.06
2022-10-21T17:43:38.982Z,100690.00
2022-10-21T17:46:06.059Z,100701.69
2022-10-21T17:48:33.934Z,100701.03
2022-10-21T17:51:02.271Z,100701.41
2022-10-21T17:53:30.763Z,100709.16
2022-10-21T17:55:59.664Z,100708.81
2022-10-21T17:58:27.500Z,100714.16
2022-10-21T18:00:58.293Z,100717.53
2022-10-21T18:03:26.983Z,100711.50
2022-10-21T18:05:55.673Z,100717.81
2022-10-21T18:08:23.522Z,100716.13
2022-10-21T18:10:58.637Z,100722.47
2022-10-21T18:13:28.715Z,100722.28
2022-10-21T18:16:01.048Z,100719.41
2022-10-21T18:18:27.927Z,100726.00
2022-10-21T18:20:54.806Z,100720.97
2022-10-21T18:23:21.657Z,100729.47
2022-10-21T18:25:48.508Z,100727.19
2022-10-21T18:28:15.366Z,100727.88
2022-10-21T18:30:43.550Z,100727.06
2022-10-21T18:33:11.007Z,100733.06
2022-10-21T18:35:37.996Z,100729.88
2022-10-21T18:38:04.862Z,100733.28
2022-10-21T18:40:33.517Z,100728.25
2022-10-21T18:43:00.324Z,100727.94
2022-10-21T18:45:27.147Z,100738.25
2022-10-21T18:47:55.544Z,100732.56
2022-10-21T18:50:22.471Z,100740.56
2022-10-21T18:52:49.583Z,100745.91
2022-10-21T18:55:17.134Z,100745.22
2022-10-21T18:57:44.246Z,100740.19
2022-10-21T19:00:11.298Z,100740.13
2022-10-21T19:02:38.097Z,100748.06
2022-10-21T19:05:05.298Z,100744.59
2022-10-21T19:07:32.169Z,100741.00
2022-10-21T19:09:58.974Z,100744.41
2022-10-21T19:12:25.837Z,100746.34
2022-10-21T19:14:52.623Z,100750.19
2022-10-21T19:17:19.820Z,100742.50
2022-10-21T19:19:46.686Z,100737.16
2022-10-21T19:22:14.588Z,100739.84
2022-10-21T19:24:41.586Z,100748.00
2022-10-21T19:27:08.524Z,100745.25
2022-10-21T19:29:35.337Z,100738.91
2022-10-21T19:32:02.352Z,100744.31
2022-10-21T19:34:29.209Z,100737.75
2022-10-21T19:36:56.016Z,100742.44
2022-10-21T19:39:22.988Z,100738.47
2022-10-21T19:41:49.780Z,100745.16
2022-10-21T19:44:16.822Z,100753.63
2022-10-21T19:46:44.696Z,100748.19
2022-10-21T19:49:13.900Z,100745.72
2022-10-21T19:51:40.794Z,100759.81
2022-10-21T19:54:09.248Z,100767.56
2022-10-21T19:56:36.186Z,100765.38
2022-10-21T19:59:03.998Z,100762.31
2022-10-21T20:01:31.598Z,100764.75
2022-10-21T20:04:00.510Z,100761.44
2022-10-21T20:06:33.263Z,100762.50
2022-10-21T20:09:03.015Z,100763.22
2022-10-21T20:11:30.073Z,100767.19
2022-10-21T20:13:57.144Z,100760.09
2022-10-21T20:16:30.622Z,100766.47
2022-10-21T20:18:59.475Z,100767.13
2022-10-21T20:21:27.665Z,100767.06
2022-10-21T20:23:56.553Z,100774.13
2022-10-21T20:26:23.505Z,100767.53
2022-10-21T20:28:51.385Z,100774.06
2022-10-21T20:31:19.165Z,100775.97
2022-10-21T20:33:48.614Z,100772.75
2022-10-21T20:36:21.581Z,100776.03
2022-10-21T20:38:49.853Z,100780.69
2022-10-21T20:41:22.900Z,100779.59
2022-10-21T20:43:50.991Z,100775.47
2022-10-21T20:46:18.899Z,100773.28
2022-10-21T20:48:48.511Z,100771.56
2022-10-21T20:51:21.545Z,100779.38
2022-10-21T20:53:51.627Z,100787.00
2022-10-21T20:56:19.290Z,100782.44
2022-10-21T20:58:46.939Z,100783.16
2022-10-21T21:01:20.523Z,100780.38
2022-10-21T21:03:52.411Z,100782.59
2022-10-21T21:06:19.854Z,100786.66
2022-10-21T21:08:53.348Z,100790.47
2022-10-21T21:11:25.716Z,100784.56
2022-10-21T21:13:52.566Z,100784.13
2022-10-21T21:16:22.065Z,100776.03
2022-10-21T21:18:54.679Z,100774.50
2022-10-21T21:21:23.105Z,100775.38
2022-10-21T21:23:49.992Z,100774.50
2022-10-21T21:26:22.616Z,100773.31
2022-10-21T21:28:51.007Z,100774.34
2022-10-21T21:31:20.054Z,100772.03
2022-10-21T21:33:47.116Z,100769.44
2022-10-21T21:36:15.918Z,100765.63
2022-10-21T21:38:43.329Z,100769.50
2022-10-21T21:41:10.902Z,100773.31
2022-10-21T21:43:38.445Z,100772.13
2022-10-21T21:46:05.603Z,100769.38
2022-10-21T21:48:32.807Z,100765.97
2022-10-21T21:51:04.846Z,100765.88
2022-10-21T21:53:32.020Z,100764.63
2022-10-21T21:56:03.588Z,100762.81
2022-10-21T21:58:30.792Z,100772.16
2022-10-21T22:00:58.009Z,100774.00
2022-10-21T22:03:24.883Z,100787.63
2022-10-21T22:05:51.678Z,100770.19
2022-10-21T22:08:18.528Z,100779.44
2022-10-21T22:10:45.272Z,100784.38
2022-10-21T22:13:12.770Z,100779.72
2022-10-21T22:15:48.368Z,100776.31
2022-10-21T22:18:15.627Z,100775.22
2022-10-21T22:20:42.469Z,100772.09
2022-10-21T22:23:09.254Z,100779.03
2022-10-21T22:25:38.447Z,100775.22
2022-10-21T22:28:05.518Z,100777.59
2022-10-21T22:30:32.332Z,100768.03
2022-10-21T22:32:59.167Z,100773.72
2022-10-21T22:35:26.993Z,100772.59
2022-10-21T22:37:54.037Z,100772.47
2022-10-21T22:40:20.863Z,100763.44
2022-10-21T22:42:47.625Z,100768.38
2022-10-21T22:45:14.504Z,100767.25
2022-10-21T22:47:41.611Z,100761.63
2022-10-21T22:50:09.159Z,100763.25
2022-10-21T22:52:35.978Z,100766.13
2022-10-21T22:55:02.821Z,100767.94
2022-10-21T22:57:29.590Z,100760.63
2022-10-21T22:59:56.353Z,100768.97
2022-10-21T23:02:23.114Z,100775.06
2022-10-21T23:04:49.974Z,100779.44
2022-10-21T23:07:16.785Z,100780.94
2022-10-21T23:09:43.567Z,100778.50
2022-10-21T23:12:10.326Z,100778.72
2022-10-21T23:14:37.099Z,100778.53
2022-10-21T23:17:04.042Z,100780.63
2022-10-21T23:19:30.803Z,100778.44
2022-10-21T23:21:57.639Z,100776.78
2022-10-21T23:24:24.485Z,100778.75
2022-10-21T23:26:51.319Z,100772.88
2022-10-21T23:29:18.089Z,100784.22
2022-10-21T23:31:44.974Z,100776.66
2022-10-21T23:34:11.840Z,100779.00
2022-10-21T23:36:38.697Z,100785.59
2022-10-21T23:39:05.680Z,100782.25
2022-10-21T23:41:32.499Z,100774.25
2022-10-21T23:43:59.303Z,100777.38
2022-10-21T23:48:57.907Z,100775.03
2022-10-21T23:51:24.769Z,100770.53
2022-10-21T23:53:51.524Z,100771.22
2022-10-21T23:56:18.470Z,100773.59
2022-10-21T23:58:45.279Z,100768.53
